sensor_id;sensor_type;location;lat;lon;timestamp;P1;durP1;ratioP1;P2;durP2;ratioP2
62848;SDS011;48941;49.516;8.286;2024-02-26T00:00:05;6.75;;;3.30;;
62848;SDS011;48941;49.516;8.286;2024-02-26T00:02:35;6.47;;;3.03;;
62848;SDS011;48941;49.516;8.286;2024-02-26T00:05:04;4.80;;;2.70;;
62848;SDS011;48941;49.516;8.286;2024-02-26T00:07:33;4.28;;;2.92;;
62848;SDS011;48941;49.516;8.286;2024-02-26T00:10:01;4.63;;;2.75;;
62848;SDS011;48941;49.516;8.286;2024-02-26T00:12:28;4.43;;;2.88;;
62848;SDS011;48941;49.516;8.286;2024-02-26T00:14:58;6.00;;;3.60;;
62848;SDS011;48941;49.516;8.286;2024-02-26T00:17:26;6.82;;;3.50;;
62848;SDS011;48941;49.516;8.286;2024-02-26T00:19:53;6.78;;;3.22;;
62848;SDS011;48941;49.516;8.286;2024-02-26T00:22:21;6.15;;;3.30;;
62848;SDS011;48941;49.516;8.286;2024-02-26T00:24:49;8.98;;;4.78;;
62848;SDS011;48941;49.516;8.286;2024-02-26T00:27:17;11.43;;;4.15;;
62848;SDS011;48941;49.516;8.286;2024-02-26T00:29:45;6.07;;;3.45;;
62848;SDS011;48941;49.516;8.286;2024-02-26T00:32:13;4.38;;;2.97;;
62848;SDS011;48941;49.516;8.286;2024-02-26T00:34:41;5.88;;;3.28;;
62848;SDS011;48941;49.516;8.286;2024-02-26T00:37:08;5.20;;;3.10;;
62848;SDS011;48941;49.516;8.286;2024-02-26T00:39:36;6.63;;;3.05;;
62848;SDS011;48941;49.516;8.286;2024-02-26T00:42:04;6.15;;;3.20;;
62848;SDS011;48941;49.516;8.286;2024-02-26T00:44:32;4.03;;;3.03;;
62848;SDS011;48941;49.516;8.286;2024-02-26T00:47:00;3.35;;;2.63;;
62848;SDS011;48941;49.516;8.286;2024-02-26T00:49:29;3.10;;;2.72;;
62848;SDS011;48941;49.516;8.286;2024-02-26T00:51:57;5.90;;;3.10;;
62848;SDS011;48941;49.516;8.286;2024-02-26T00:54:25;5.53;;;3.28;;
62848;SDS011;48941;49.516;8.286;2024-02-26T00:56:53;6.85;;;3.25;;
62848;SDS011;48941;49.516;8.286;2024-02-26T00:59:20;4.55;;;3.13;;
62848;SDS011;48941;49.516;8.286;2024-02-26T01:01:48;5.47;;;3.17;;
62848;SDS011;48941;49.516;8.286;2024-02-26T01:04:16;6.07;;;3.33;;
62848;SDS011;48941;49.516;8.286;2024-02-26T01:06:45;6.95;;;4.18;;
62848;SDS011;48941;49.516;8.286;2024-02-26T01:09:13;4.30;;;3.00;;
62848;SDS011;48941;49.516;8.286;2024-02-26T01:11:41;4.72;;;3.35;;
62848;SDS011;48941;49.516;8.286;2024-02-26T01:14:09;5.40;;;3.08;;
62848;SDS011;48941;49.516;8.286;2024-02-26T01:16:38;5.93;;;3.22;;
62848;SDS011;48941;49.516;8.286;2024-02-26T01:19:06;5.80;;;3.55;;
62848;SDS011;48941;49.516;8.286;2024-02-26T01:21:34;4.72;;;3.05;;
62848;SDS011;48941;49.516;8.286;2024-02-26T01:24:03;6.70;;;2.63;;
62848;SDS011;48941;49.516;8.286;2024-02-26T01:26:31;3.55;;;2.70;;
62848;SDS011;48941;49.516;8.286;2024-02-26T01:28:59;4.25;;;2.60;;
62848;SDS011;48941;49.516;8.286;2024-02-26T01:31:27;3.90;;;2.47;;
62848;SDS011;48941;49.516;8.286;2024-02-26T01:33:55;3.13;;;2.47;;
62848;SDS011;48941;49.516;8.286;2024-02-26T01:36:23;3.55;;;2.25;;
62848;SDS011;48941;49.516;8.286;2024-02-26T01:38:51;3.38;;;2.72;;
62848;SDS011;48941;49.516;8.286;2024-02-26T01:41:20;6.05;;;2.47;;
62848;SDS011;48941;49.516;8.286;2024-02-26T01:43:48;5.88;;;2.78;;
62848;SDS011;48941;49.516;8.286;2024-02-26T01:46:16;3.33;;;2.40;;
62848;SDS011;48941;49.516;8.286;2024-02-26T01:48:45;3.75;;;2.30;;
62848;SDS011;48941;49.516;8.286;2024-02-26T01:51:16;4.32;;;2.50;;
62848;SDS011;48941;49.516;8.286;2024-02-26T01:53:45;3.92;;;2.38;;
62848;SDS011;48941;49.516;8.286;2024-02-26T01:56:13;2.90;;;2.25;;
62848;SDS011;48941;49.516;8.286;2024-02-26T01:58:43;3.60;;;2.33;;
62848;SDS011;48941;49.516;8.286;2024-02-26T02:01:11;2.97;;;1.95;;
62848;SDS011;48941;49.516;8.286;2024-02-26T02:03:40;4.97;;;2.28;;
62848;SDS011;48941;49.516;8.286;2024-02-26T02:06:08;2.53;;;2.05;;
62848;SDS011;48941;49.516;8.286;2024-02-26T02:08:37;3.40;;;2.20;;
62848;SDS011;48941;49.516;8.286;2024-02-26T02:11:06;2.83;;;2.00;;
62848;SDS011;48941;49.516;8.286;2024-02-26T02:13:34;4.45;;;2.05;;
62848;SDS011;48941;49.516;8.286;2024-02-26T02:16:03;2.40;;;2.10;;
62848;SDS011;48941;49.516;8.286;2024-02-26T02:18:31;3.50;;;2.38;;
62848;SDS011;48941;49.516;8.286;2024-02-26T02:21:01;4.68;;;2.40;;
62848;SDS011;48941;49.516;8.286;2024-02-26T02:23:29;4.90;;;2.17;;
62848;SDS011;48941;49.516;8.286;2024-02-26T02:25:57;2.45;;;2.00;;
62848;SDS011;48941;49.516;8.286;2024-02-26T02:28:26;3.22;;;1.70;;
62848;SDS011;48941;49.516;8.286;2024-02-26T02:30:55;3.50;;;2.20;;
62848;SDS011;48941;49.516;8.286;2024-02-26T02:33:23;3.90;;;2.20;;
62848;SDS011;48941;49.516;8.286;2024-02-26T02:35:53;3.13;;;2.28;;
62848;SDS011;48941;49.516;8.286;2024-02-26T02:38:22;2.20;;;2.00;;
62848;SDS011;48941;49.516;8.286;2024-02-26T02:40:52;2.80;;;2.13;;
62848;SDS011;48941;49.516;8.286;2024-02-26T02:43:20;3.05;;;2.20;;
62848;SDS011;48941;49.516;8.286;2024-02-26T02:45:47;5.35;;;2.15;;
62848;SDS011;48941;49.516;8.286;2024-02-26T02:48:15;4.65;;;2.30;;
62848;SDS011;48941;49.516;8.286;2024-02-26T02:50:43;2.75;;;2.20;;
62848;SDS011;48941;49.516;8.286;2024-02-26T02:53:11;2.90;;;1.92;;
62848;SDS011;48941;49.516;8.286;2024-02-26T02:55:40;3.10;;;1.90;;
62848;SDS011;48941;49.516;8.286;2024-02-26T02:58:07;2.63;;;1.80;;
62848;SDS011;48941;49.516;8.286;2024-02-26T03:00:35;2.60;;;1.70;;
62848;SDS011;48941;49.516;8.286;2024-02-26T03:03:03;2.47;;;1.70;;
62848;SDS011;48941;49.516;8.286;2024-02-26T03:05:32;2.08;;;1.58;;
62848;SDS011;48941;49.516;8.286;2024-02-26T03:08:00;1.40;;;1.30;;
62848;SDS011;48941;49.516;8.286;2024-02-26T03:10:28;2.47;;;1.50;;
62848;SDS011;48941;49.516;8.286;2024-02-26T03:12:57;1.30;;;1.20;;
62848;SDS011;48941;49.516;8.286;2024-02-26T03:15:24;1.42;;;1.20;;
62848;SDS011;48941;49.516;8.286;2024-02-26T03:17:52;1.40;;;1.27;;
62848;SDS011;48941;49.516;8.286;2024-02-26T03:20:20;2.13;;;1.40;;
62848;SDS011;48941;49.516;8.286;2024-02-26T03:22:48;1.33;;;1.10;;
62848;SDS011;48941;49.516;8.286;2024-02-26T03:25:16;2.03;;;1.40;;
62848;SDS011;48941;49.516;8.286;2024-02-26T03:27:43;1.52;;;1.20;;
62848;SDS011;48941;49.516;8.286;2024-02-26T03:30:13;1.40;;;1.20;;
62848;SDS011;48941;49.516;8.286;2024-02-26T03:32:41;2.17;;;1.30;;
62848;SDS011;48941;49.516;8.286;2024-02-26T03:35:09;1.98;;;1.02;;
62848;SDS011;48941;49.516;8.286;2024-02-26T03:37:37;1.20;;;1.10;;
62848;SDS011;48941;49.516;8.286;2024-02-26T03:40:05;1.30;;;1.20;;
62848;SDS011;48941;49.516;8.286;2024-02-26T03:42:34;1.20;;;1.10;;
62848;SDS011;48941;49.516;8.286;2024-02-26T03:45:02;1.65;;;1.02;;
62848;SDS011;48941;49.516;8.286;2024-02-26T03:47:31;1.05;;;1.02;;
62848;SDS011;48941;49.516;8.286;2024-02-26T03:49:59;1.30;;;1.20;;
62848;SDS011;48941;49.516;8.286;2024-02-26T03:52:26;1.60;;;1.20;;
62848;SDS011;48941;49.516;8.286;2024-02-26T03:54:54;2.25;;;1.40;;
62848;SDS011;48941;49.516;8.286;2024-02-26T03:57:22;1.85;;;1.20;;
62848;SDS011;48941;49.516;8.286;2024-02-26T03:59:50;1.70;;;1.08;;
62848;SDS011;48941;49.516;8.286;2024-02-26T04:02:17;1.55;;;1.45;;
62848;SDS011;48941;49.516;8.286;2024-02-26T04:04:48;2.15;;;1.20;;
62848;SDS011;48941;49.516;8.286;2024-02-26T04:07:15;1.40;;;1.10;;
62848;SDS011;48941;49.516;8.286;2024-02-26T04:12:11;1.10;;;0.95;;
62848;SDS011;48941;49.516;8.286;2024-02-26T04:14:39;1.27;;;1.20;;
62848;SDS011;48941;49.516;8.286;2024-02-26T04:17:07;1.58;;;1.00;;
62848;SDS011;48941;49.516;8.286;2024-02-26T04:19:35;1.50;;;1.05;;
62848;SDS011;48941;49.516;8.286;2024-02-26T04:22:04;2.00;;;1.38;;
62848;SDS011;48941;49.516;8.286;2024-02-26T04:24:32;2.35;;;1.42;;
62848;SDS011;48941;49.516;8.286;2024-02-26T04:27:00;2.17;;;1.20;;
62848;SDS011;48941;49.516;8.286;2024-02-26T04:29:28;1.40;;;1.30;;
62848;SDS011;48941;49.516;8.286;2024-02-26T04:31:55;1.52;;;1.27;;
62848;SDS011;48941;49.516;8.286;2024-02-26T04:34:23;1.40;;;1.10;;
62848;SDS011;48941;49.516;8.286;2024-02-26T04:36:51;1.55;;;1.20;;
62848;SDS011;48941;49.516;8.286;2024-02-26T04:39:20;1.65;;;1.30;;
62848;SDS011;48941;49.516;8.286;2024-02-26T04:41:48;1.42;;;1.33;;
62848;SDS011;48941;49.516;8.286;2024-02-26T04:44:16;2.40;;;1.52;;
62848;SDS011;48941;49.516;8.286;2024-02-26T04:46:44;2.00;;;1.38;;
62848;SDS011;48941;49.516;8.286;2024-02-26T04:49:11;2.80;;;1.38;;
62848;SDS011;48941;49.516;8.286;2024-02-26T04:51:39;1.40;;;1.20;;
62848;SDS011;48941;49.516;8.286;2024-02-26T04:54:07;4.57;;;1.45;;
62848;SDS011;48941;49.516;8.286;2024-02-26T04:56:36;2.88;;;1.33;;
62848;SDS011;48941;49.516;8.286;2024-02-26T04:59:04;2.60;;;1.13;;
62848;SDS011;48941;49.516;8.286;2024-02-26T05:01:31;1.55;;;1.10;;
62848;SDS011;48941;49.516;8.286;2024-02-26T05:03:59;2.63;;;1.08;;
62848;SDS011;48941;49.516;8.286;2024-02-26T05:06:27;2.10;;;1.10;;
62848;SDS011;48941;49.516;8.286;2024-02-26T05:08:55;2.38;;;1.20;;
62848;SDS011;48941;49.516;8.286;2024-02-26T05:11:23;2.72;;;1.33;;
62848;SDS011;48941;49.516;8.286;2024-02-26T05:13:52;2.35;;;1.30;;
62848;SDS011;48941;49.516;8.286;2024-02-26T05:16:20;4.18;;;1.20;;
62848;SDS011;48941;49.516;8.286;2024-02-26T05:18:50;4.97;;;1.85;;
62848;SDS011;48941;49.516;8.286;2024-02-26T05:21:18;1.05;;;1.00;;
62848;SDS011;48941;49.516;8.286;2024-02-26T05:23:46;1.75;;;1.17;;
62848;SDS011;48941;49.516;8.286;2024-02-26T05:26:19;1.67;;;1.27;;
62848;SDS011;48941;49.516;8.286;2024-02-26T05:28:47;5.30;;;1.40;;
62848;SDS011;48941;49.516;8.286;2024-02-26T05:31:16;6.43;;;3.10;;
62848;SDS011;48941;49.516;8.286;2024-02-26T05:33:45;4.88;;;1.60;;
62848;SDS011;48941;49.516;8.286;2024-02-26T05:36:17;3.00;;;1.63;;
62848;SDS011;48941;49.516;8.286;2024-02-26T05:41:14;1.80;;;1.23;;
62848;SDS011;48941;49.516;8.286;2024-02-26T05:43:42;2.53;;;1.30;;
62848;SDS011;48941;49.516;8.286;2024-02-26T05:46:10;2.22;;;1.52;;
62848;SDS011;48941;49.516;8.286;2024-02-26T05:48:39;5.53;;;2.92;;
62848;SDS011;48941;49.516;8.286;2024-02-26T05:51:07;6.18;;;4.05;;
62848;SDS011;48941;49.516;8.286;2024-02-26T05:53:35;8.98;;;5.22;;
62848;SDS011;48941;49.516;8.286;2024-02-26T05:56:03;2.10;;;1.90;;
62848;SDS011;48941;49.516;8.286;2024-02-26T05:58:31;2.40;;;1.60;;
62848;SDS011;48941;49.516;8.286;2024-02-26T06:01:01;2.35;;;1.50;;
62848;SDS011;48941;49.516;8.286;2024-02-26T06:03:29;2.72;;;1.83;;
62848;SDS011;48941;49.516;8.286;2024-02-26T06:05:58;2.45;;;1.60;;
62848;SDS011;48941;49.516;8.286;2024-02-26T06:08:26;3.35;;;1.77;;
62848;SDS011;48941;49.516;8.286;2024-02-26T06:10:53;3.58;;;1.65;;
62848;SDS011;48941;49.516;8.286;2024-02-26T06:13:21;2.65;;;2.00;;
62848;SDS011;48941;49.516;8.286;2024-02-26T06:15:49;3.58;;;1.63;;
62848;SDS011;48941;49.516;8.286;2024-02-26T06:18:17;2.85;;;1.55;;
62848;SDS011;48941;49.516;8.286;2024-02-26T06:20:45;4.07;;;1.60;;
62848;SDS011;48941;49.516;8.286;2024-02-26T06:23:14;2.47;;;2.05;;
62848;SDS011;48941;49.516;8.286;2024-02-26T06:25:42;2.78;;;1.52;;
62848;SDS011;48941;49.516;8.286;2024-02-26T06:28:10;9.18;;;2.47;;
62848;SDS011;48941;49.516;8.286;2024-02-26T06:30:37;3.30;;;2.30;;
62848;SDS011;48941;49.516;8.286;2024-02-26T06:33:05;4.30;;;1.80;;
62848;SDS011;48941;49.516;8.286;2024-02-26T06:35:33;4.10;;;2.08;;
62848;SDS011;48941;49.516;8.286;2024-02-26T06:38:01;6.00;;;2.20;;
62848;SDS011;48941;49.516;8.286;2024-02-26T06:40:30;2.00;;;1.80;;
62848;SDS011;48941;49.516;8.286;2024-02-26T06:42:58;2.97;;;2.45;;
62848;SDS011;48941;49.516;8.286;2024-02-26T06:45:25;5.78;;;2.70;;
62848;SDS011;48941;49.516;8.286;2024-02-26T06:47:53;4.45;;;2.85;;
62848;SDS011;48941;49.516;8.286;2024-02-26T06:50:22;4.70;;;3.25;;
62848;SDS011;48941;49.516;8.286;2024-02-26T06:52:50;5.55;;;3.22;;
62848;SDS011;48941;49.516;8.286;2024-02-26T06:55:17;6.30;;;3.72;;
62848;SDS011;48941;49.516;8.286;2024-02-26T06:57:46;8.90;;;4.00;;
62848;SDS011;48941;49.516;8.286;2024-02-26T07:00:15;12.82;;;5.13;;
62848;SDS011;48941;49.516;8.286;2024-02-26T07:02:43;7.65;;;4.10;;
62848;SDS011;48941;49.516;8.286;2024-02-26T07:05:11;5.60;;;3.53;;
62848;SDS011;48941;49.516;8.286;2024-02-26T07:07:39;4.75;;;2.60;;
62848;SDS011;48941;49.516;8.286;2024-02-26T07:10:07;5.32;;;2.67;;
62848;SDS011;48941;49.516;8.286;2024-02-26T07:12:35;2.95;;;2.60;;
62848;SDS011;48941;49.516;8.286;2024-02-26T07:15:06;4.40;;;2.78;;
62848;SDS011;48941;49.516;8.286;2024-02-26T07:17:35;3.70;;;2.60;;
62848;SDS011;48941;49.516;8.286;2024-02-26T07:20:03;4.72;;;2.67;;
62848;SDS011;48941;49.516;8.286;2024-02-26T07:25:03;4.55;;;2.80;;
62848;SDS011;48941;49.516;8.286;2024-02-26T07:27:34;10.43;;;3.35;;
62848;SDS011;48941;49.516;8.286;2024-02-26T07:30:02;5.97;;;2.75;;
62848;SDS011;48941;49.516;8.286;2024-02-26T07:32:32;3.45;;;2.60;;
62848;SDS011;48941;49.516;8.286;2024-02-26T07:34:59;4.80;;;2.90;;
62848;SDS011;48941;49.516;8.286;2024-02-26T07:37:27;3.97;;;2.55;;
62848;SDS011;48941;49.516;8.286;2024-02-26T07:39:55;3.63;;;2.70;;
62848;SDS011;48941;49.516;8.286;2024-02-26T07:42:23;5.82;;;3.22;;
62848;SDS011;48941;49.516;8.286;2024-02-26T07:44:51;6.47;;;3.47;;
62848;SDS011;48941;49.516;8.286;2024-02-26T07:47:19;7.25;;;3.95;;
62848;SDS011;48941;49.516;8.286;2024-02-26T07:49:48;8.02;;;4.07;;
62848;SDS011;48941;49.516;8.286;2024-02-26T07:52:16;9.27;;;4.95;;
62848;SDS011;48941;49.516;8.286;2024-02-26T07:54:44;7.47;;;4.55;;
62848;SDS011;48941;49.516;8.286;2024-02-26T07:57:12;9.10;;;3.80;;
62848;SDS011;48941;49.516;8.286;2024-02-26T07:59:42;7.75;;;3.60;;
62848;SDS011;48941;49.516;8.286;2024-02-26T08:02:11;6.85;;;3.03;;
62848;SDS011;48941;49.516;8.286;2024-02-26T08:04:39;3.72;;;2.92;;
62848;SDS011;48941;49.516;8.286;2024-02-26T08:07:08;6.18;;;3.33;;
62848;SDS011;48941;49.516;8.286;2024-02-26T08:09:35;4.80;;;2.80;;
62848;SDS011;48941;49.516;8.286;2024-02-26T08:12:03;3.20;;;2.85;;
62848;SDS011;48941;49.516;8.286;2024-02-26T08:14:32;6.03;;;3.00;;
62848;SDS011;48941;49.516;8.286;2024-02-26T08:17:00;3.80;;;2.97;;
62848;SDS011;48941;49.516;8.286;2024-02-26T08:19:28;5.78;;;3.10;;
62848;SDS011;48941;49.516;8.286;2024-02-26T08:21:55;4.88;;;3.50;;
62848;SDS011;48941;49.516;8.286;2024-02-26T08:24:26;3.95;;;3.30;;
62848;SDS011;48941;49.516;8.286;2024-02-26T08:26:54;4.28;;;3.08;;
62848;SDS011;48941;49.516;8.286;2024-02-26T08:29:22;5.75;;;3.00;;
62848;SDS011;48941;49.516;8.286;2024-02-26T08:31:50;5.15;;;3.00;;
62848;SDS011;48941;49.516;8.286;2024-02-26T08:34:18;4.70;;;3.15;;
62848;SDS011;48941;49.516;8.286;2024-02-26T08:36:46;7.47;;;3.50;;
62848;SDS011;48941;49.516;8.286;2024-02-26T08:39:15;7.35;;;3.17;;
62848;SDS011;48941;49.516;8.286;2024-02-26T08:41:45;4.72;;;2.92;;
62848;SDS011;48941;49.516;8.286;2024-02-26T08:44:13;3.92;;;3.10;;
62848;SDS011;48941;49.516;8.286;2024-02-26T08:46:40;5.15;;;3.22;;
62848;SDS011;48941;49.516;8.286;2024-02-26T08:49:08;6.03;;;3.17;;
62848;SDS011;48941;49.516;8.286;2024-02-26T08:51:40;6.43;;;2.95;;
62848;SDS011;48941;49.516;8.286;2024-02-26T08:54:08;4.45;;;3.25;;
62848;SDS011;48941;49.516;8.286;2024-02-26T08:56:36;4.25;;;2.95;;
62848;SDS011;48941;49.516;8.286;2024-02-26T08:59:05;4.57;;;3.10;;
62848;SDS011;48941;49.516;8.286;2024-02-26T09:01:33;6.03;;;2.92;;
62848;SDS011;48941;49.516;8.286;2024-02-26T09:04:01;6.65;;;3.22;;
62848;SDS011;48941;49.516;8.286;2024-02-26T09:06:29;6.75;;;3.08;;
62848;SDS011;48941;49.516;8.286;2024-02-26T09:08:57;16.58;;;4.65;;
62848;SDS011;48941;49.516;8.286;2024-02-26T09:11:27;7.10;;;3.00;;
62848;SDS011;48941;49.516;8.286;2024-02-26T09:13:55;5.65;;;3.28;;
62848;SDS011;48941;49.516;8.286;2024-02-26T09:16:24;4.32;;;3.10;;
62848;SDS011;48941;49.516;8.286;2024-02-26T09:18:52;7.93;;;3.60;;
62848;SDS011;48941;49.516;8.286;2024-02-26T09:21:20;5.10;;;3.42;;
62848;SDS011;48941;49.516;8.286;2024-02-26T09:23:50;5.40;;;3.28;;
62848;SDS011;48941;49.516;8.286;2024-02-26T09:26:19;4.35;;;3.30;;
62848;SDS011;48941;49.516;8.286;2024-02-26T09:28:47;3.55;;;2.83;;
62848;SDS011;48941;49.516;8.286;2024-02-26T09:31:15;3.50;;;2.88;;
62848;SDS011;48941;49.516;8.286;2024-02-26T09:33:45;5.25;;;2.97;;
62848;SDS011;48941;49.516;8.286;2024-02-26T09:36:13;5.35;;;3.20;;
62848;SDS011;48941;49.516;8.286;2024-02-26T09:38:41;5.97;;;2.97;;
62848;SDS011;48941;49.516;8.286;2024-02-26T09:41:22;6.47;;;3.58;;
62848;SDS011;48941;49.516;8.286;2024-02-26T09:43:49;6.47;;;3.20;;
62848;SDS011;48941;49.516;8.286;2024-02-26T09:46:23;4.88;;;3.25;;
62848;SDS011;48941;49.516;8.286;2024-02-26T09:48:53;3.95;;;2.83;;
62848;SDS011;48941;49.516;8.286;2024-02-26T09:51:22;6.32;;;3.20;;
62848;SDS011;48941;49.516;8.286;2024-02-26T09:53:52;4.78;;;3.00;;
62848;SDS011;48941;49.516;8.286;2024-02-26T09:56:20;5.05;;;2.95;;
62848;SDS011;48941;49.516;8.286;2024-02-26T09:58:48;4.55;;;2.92;;
62848;SDS011;48941;49.516;8.286;2024-02-26T10:01:20;6.18;;;3.05;;
62848;SDS011;48941;49.516;8.286;2024-02-26T10:03:52;5.03;;;2.88;;
62848;SDS011;48941;49.516;8.286;2024-02-26T10:06:23;3.60;;;2.80;;
62848;SDS011;48941;49.516;8.286;2024-02-26T10:08:51;4.97;;;2.97;;
62848;SDS011;48941;49.516;8.286;2024-02-26T10:11:20;5.40;;;2.83;;
62848;SDS011;48941;49.516;8.286;2024-02-26T10:13:49;4.57;;;2.85;;
62848;SDS011;48941;49.516;8.286;2024-02-26T10:16:17;10.27;;;2.92;;
62848;SDS011;48941;49.516;8.286;2024-02-26T10:18:46;7.28;;;2.97;;
62848;SDS011;48941;49.516;8.286;2024-02-26T10:21:19;8.15;;;2.90;;
62848;SDS011;48941;49.516;8.286;2024-02-26T10:23:48;5.03;;;2.90;;
62848;SDS011;48941;49.516;8.286;2024-02-26T10:26:16;5.22;;;3.50;;
62848;SDS011;48941;49.516;8.286;2024-02-26T10:28:45;6.43;;;3.60;;
62848;SDS011;48941;49.516;8.286;2024-02-26T10:31:18;5.65;;;3.05;;
62848;SDS011;48941;49.516;8.286;2024-02-26T10:33:46;4.78;;;2.78;;
62848;SDS011;48941;49.516;8.286;2024-02-26T10:36:14;10.00;;;3.22;;
62848;SDS011;48941;49.516;8.286;2024-02-26T10:38:44;5.20;;;2.60;;
62848;SDS011;48941;49.516;8.286;2024-02-26T10:41:13;5.90;;;2.70;;
62848;SDS011;48941;49.516;8.286;2024-02-26T10:43:42;2.80;;;2.50;;
62848;SDS011;48941;49.516;8.286;2024-02-26T10:46:10;5.55;;;2.65;;
62848;SDS011;48941;49.516;8.286;2024-02-26T10:48:38;3.70;;;2.60;;
62848;SDS011;48941;49.516;8.286;2024-02-26T10:51:07;5.30;;;2.70;;
62848;SDS011;48941;49.516;8.286;2024-02-26T10:53:39;4.38;;;2.55;;
62848;SDS011;48941;49.516;8.286;2024-02-26T10:56:13;3.25;;;2.50;;
62848;SDS011;48941;49.516;8.286;2024-02-26T11:01:13;3.47;;;2.50;;
62848;SDS011;48941;49.516;8.286;2024-02-26T11:03:40;4.00;;;2.30;;
62848;SDS011;48941;49.516;8.286;2024-02-26T11:06:09;3.80;;;2.55;;
62848;SDS011;48941;49.516;8.286;2024-02-26T11:08:39;2.90;;;2.30;;
62848;SDS011;48941;49.516;8.286;2024-02-26T11:11:07;4.30;;;2.60;;
62848;SDS011;48941;49.516;8.286;2024-02-26T11:13:37;3.30;;;2.63;;
62848;SDS011;48941;49.516;8.286;2024-02-26T11:16:09;4.10;;;3.30;;
62848;SDS011;48941;49.516;8.286;2024-02-26T11:18:39;6.55;;;3.05;;
62848;SDS011;48941;49.516;8.286;2024-02-26T11:21:11;4.50;;;2.78;;
62848;SDS011;48941;49.516;8.286;2024-02-26T11:23:40;3.70;;;2.80;;
62848;SDS011;48941;49.516;8.286;2024-02-26T11:26:08;3.60;;;2.95;;
62848;SDS011;48941;49.516;8.286;2024-02-26T11:28:39;5.43;;;3.20;;
62848;SDS011;48941;49.516;8.286;2024-02-26T11:31:09;5.55;;;3.03;;
62848;SDS011;48941;49.516;8.286;2024-02-26T11:33:38;3.75;;;3.30;;
62848;SDS011;48941;49.516;8.286;2024-02-26T11:36:07;7.43;;;3.55;;
62848;SDS011;48941;49.516;8.286;2024-02-26T11:38:37;7.88;;;3.30;;
62848;SDS011;48941;49.516;8.286;2024-02-26T11:41:05;4.53;;;3.22;;
62848;SDS011;48941;49.516;8.286;2024-02-26T11:46:25;4.00;;;3.60;;
62848;SDS011;48941;49.516;8.286;2024-02-26T11:48:54;6.43;;;3.67;;
62848;SDS011;48941;49.516;8.286;2024-02-26T11:51:25;6.00;;;4.03;;
62848;SDS011;48941;49.516;8.286;2024-02-26T11:53:53;4.53;;;4.07;;
62848;SDS011;48941;49.516;8.286;2024-02-26T11:56:23;8.95;;;4.45;;
62848;SDS011;48941;49.516;8.286;2024-02-26T11:58:59;7.03;;;4.20;;
62848;SDS011;48941;49.516;8.286;2024-02-26T12:01:38;5.65;;;3.90;;
62848;SDS011;48941;49.516;8.286;2024-02-26T12:04:14;5.50;;;3.92;;
62848;SDS011;48941;49.516;8.286;2024-02-26T12:06:45;6.13;;;3.90;;
62848;SDS011;48941;49.516;8.286;2024-02-26T12:12:01;7.65;;;3.95;;
62848;SDS011;48941;49.516;8.286;2024-02-26T12:14:33;16.77;;;5.10;;
62848;SDS011;48941;49.516;8.286;2024-02-26T12:17:02;4.63;;;3.80;;
62848;SDS011;48941;49.516;8.286;2024-02-26T12:19:33;5.80;;;3.50;;
62848;SDS011;48941;49.516;8.286;2024-02-26T12:22:07;4.35;;;3.30;;
62848;SDS011;48941;49.516;8.286;2024-02-26T12:24:35;4.85;;;3.30;;
62848;SDS011;48941;49.516;8.286;2024-02-26T12:27:03;4.40;;;3.28;;
62848;SDS011;48941;49.516;8.286;2024-02-26T12:29:34;6.78;;;3.55;;
62848;SDS011;48941;49.516;8.286;2024-02-26T12:32:01;11.25;;;3.35;;
62848;SDS011;48941;49.516;8.286;2024-02-26T12:34:33;7.15;;;3.78;;
62848;SDS011;48941;49.516;8.286;2024-02-26T12:37:02;3.45;;;3.08;;
62848;SDS011;48941;49.516;8.286;2024-02-26T12:39:33;4.10;;;3.20;;
62848;SDS011;48941;49.516;8.286;2024-02-26T12:42:01;5.13;;;3.15;;
62848;SDS011;48941;49.516;8.286;2024-02-26T12:44:29;4.45;;;3.40;;
62848;SDS011;48941;49.516;8.286;2024-02-26T12:47:03;5.05;;;3.22;;
62848;SDS011;48941;49.516;8.286;2024-02-26T12:49:33;4.90;;;3.38;;
62848;SDS011;48941;49.516;8.286;2024-02-26T12:52:01;4.53;;;3.08;;
62848;SDS011;48941;49.516;8.286;2024-02-26T12:54:30;9.10;;;3.10;;
62848;SDS011;48941;49.516;8.286;2024-02-26T12:57:00;8.20;;;3.35;;
62848;SDS011;48941;49.516;8.286;2024-02-26T12:59:29;6.15;;;3.40;;
62848;SDS011;48941;49.516;8.286;2024-02-26T13:02:02;4.18;;;3.17;;
62848;SDS011;48941;49.516;8.286;2024-02-26T13:04:35;5.93;;;3.20;;
62848;SDS011;48941;49.516;8.286;2024-02-26T13:07:03;4.35;;;3.13;;
62848;SDS011;48941;49.516;8.286;2024-02-26T13:09:32;5.18;;;2.97;;
62848;SDS011;48941;49.516;8.286;2024-02-26T13:12:03;4.75;;;3.10;;
62848;SDS011;48941;49.516;8.286;2024-02-26T13:14:32;4.47;;;3.05;;
62848;SDS011;48941;49.516;8.286;2024-02-26T13:17:01;5.07;;;3.55;;
62848;SDS011;48941;49.516;8.286;2024-02-26T13:19:31;4.95;;;3.25;;
62848;SDS011;48941;49.516;8.286;2024-02-26T13:22:03;4.70;;;3.55;;
62848;SDS011;48941;49.516;8.286;2024-02-26T13:24:33;5.03;;;3.28;;
62848;SDS011;48941;49.516;8.286;2024-02-26T13:27:01;4.25;;;2.92;;
62848;SDS011;48941;49.516;8.286;2024-02-26T13:29:30;4.57;;;3.20;;
62848;SDS011;48941;49.516;8.286;2024-02-26T13:31:58;4.82;;;3.10;;
62848;SDS011;48941;49.516;8.286;2024-02-26T13:34:26;4.95;;;3.15;;
62848;SDS011;48941;49.516;8.286;2024-02-26T13:36:58;9.07;;;3.65;;
62848;SDS011;48941;49.516;8.286;2024-02-26T13:39:27;7.13;;;3.25;;
62848;SDS011;48941;49.516;8.286;2024-02-26T13:41:56;4.05;;;3.30;;
62848;SDS011;48941;49.516;8.286;2024-02-26T13:44:24;6.22;;;3.00;;
62848;SDS011;48941;49.516;8.286;2024-02-26T13:46:52;3.83;;;3.03;;
62848;SDS011;48941;49.516;8.286;2024-02-26T13:49:20;5.60;;;3.00;;
62848;SDS011;48941;49.516;8.286;2024-02-26T13:51:48;3.50;;;2.85;;
62848;SDS011;48941;49.516;8.286;2024-02-26T13:54:17;4.90;;;3.05;;
62848;SDS011;48941;49.516;8.286;2024-02-26T13:56:45;4.88;;;3.00;;
62848;SDS011;48941;49.516;8.286;2024-02-26T13:59:14;4.97;;;2.70;;
62848;SDS011;48941;49.516;8.286;2024-02-26T14:01:42;3.70;;;3.03;;
62848;SDS011;48941;49.516;8.286;2024-02-26T14:04:10;4.40;;;2.85;;
62848;SDS011;48941;49.516;8.286;2024-02-26T14:06:38;4.05;;;2.72;;
62848;SDS011;48941;49.516;8.286;2024-02-26T14:09:06;6.90;;;3.13;;
62848;SDS011;48941;49.516;8.286;2024-02-26T14:11:37;6.07;;;3.28;;
62848;SDS011;48941;49.516;8.286;2024-02-26T14:14:06;5.15;;;3.03;;
62848;SDS011;48941;49.516;8.286;2024-02-26T14:16:34;3.92;;;3.10;;
62848;SDS011;48941;49.516;8.286;2024-02-26T14:19:01;4.63;;;2.65;;
62848;SDS011;48941;49.516;8.286;2024-02-26T14:21:29;3.92;;;2.70;;
62848;SDS011;48941;49.516;8.286;2024-02-26T14:23:57;2.90;;;2.50;;
62848;SDS011;48941;49.516;8.286;2024-02-26T14:26:25;4.65;;;3.00;;
62848;SDS011;48941;49.516;8.286;2024-02-26T14:28:54;5.03;;;3.22;;
62848;SDS011;48941;49.516;8.286;2024-02-26T14:31:23;3.83;;;3.30;;
62848;SDS011;48941;49.516;8.286;2024-02-26T14:33:52;5.00;;;3.45;;
62848;SDS011;48941;49.516;8.286;2024-02-26T14:36:20;5.18;;;3.47;;
62848;SDS011;48941;49.516;8.286;2024-02-26T14:38:48;8.27;;;3.42;;
62848;SDS011;48941;49.516;8.286;2024-02-26T14:41:16;4.63;;;3.40;;
62848;SDS011;48941;49.516;8.286;2024-02-26T14:43:44;4.70;;;3.38;;
62848;SDS011;48941;49.516;8.286;2024-02-26T14:46:15;4.63;;;3.22;;
62848;SDS011;48941;49.516;8.286;2024-02-26T14:48:42;5.63;;;3.38;;
62848;SDS011;48941;49.516;8.286;2024-02-26T14:51:10;5.45;;;3.50;;
62848;SDS011;48941;49.516;8.286;2024-02-26T14:53:38;10.82;;;3.50;;
62848;SDS011;48941;49.516;8.286;2024-02-26T14:56:06;5.07;;;3.60;;
62848;SDS011;48941;49.516;8.286;2024-02-26T14:58:35;3.97;;;3.28;;
62848;SDS011;48941;49.516;8.286;2024-02-26T15:01:04;4.07;;;3.28;;
62848;SDS011;48941;49.516;8.286;2024-02-26T15:03:33;3.53;;;2.90;;
62848;SDS011;48941;49.516;8.286;2024-02-26T15:06:01;10.18;;;3.22;;
62848;SDS011;48941;49.516;8.286;2024-02-26T15:08:30;9.65;;;3.47;;
62848;SDS011;48941;49.516;8.286;2024-02-26T15:11:00;6.07;;;3.20;;